sensor_id;sensor_type;location;lat;lon;timestamp;P1;durP1;ratioP1;P2;durP2;ratioP2
37067;SDS011;22982;42.848;25.468;2023-09-19T00:00:21;11.88;;;7.18;;
37067;SDS011;22982;42.848;25.468;2023-09-19T00:05:25;11.80;;;7.82;;
37067;SDS011;22982;42.848;25.468;2023-09-19T00:10:30;13.65;;;6.60;;
37067;SDS011;22982;42.848;25.468;2023-09-19T00:15:38;8.50;;;6.82;;
37067;SDS011;22982;42.848;25.468;2023-09-19T00:20:42;8.98;;;6.05;;
37067;SDS011;22982;42.848;25.468;2023-09-19T00:25:50;9.02;;;7.03;;
37067;SDS011;22982;42.848;25.468;2023-09-19T00:30:53;7.75;;;6.65;;
37067;SDS011;22982;42.848;25.468;2023-09-19T00:35:59;10.85;;;7.00;;
37067;SDS011;22982;42.848;25.468;2023-09-19T00:41:03;10.55;;;6.85;;
37067;SDS011;22982;42.848;25.468;2023-09-19T00:46:07;11.10;;;5.70;;
37067;SDS011;22982;42.848;25.468;2023-09-19T00:51:10;10.68;;;6.45;;
37067;SDS011;22982;42.848;25.468;2023-09-19T00:56:12;12.02;;;6.75;;
37067;SDS011;22982;42.848;25.468;2023-09-19T01:01:21;12.70;;;6.60;;
37067;SDS011;22982;42.848;25.468;2023-09-19T01:06:24;12.27;;;6.00;;
37067;SDS011;22982;42.848;25.468;2023-09-19T01:11:31;10.02;;;6.22;;
37067;SDS011;22982;42.848;25.468;2023-09-19T01:16:42;10.50;;;6.07;;
37067;SDS011;22982;42.848;25.468;2023-09-19T01:22:26;9.13;;;6.32;;
37067;SDS011;22982;42.848;25.468;2023-09-19T01:32:49;8.88;;;5.90;;
37067;SDS011;22982;42.848;25.468;2023-09-19T01:37:54;9.75;;;6.53;;
37067;SDS011;22982;42.848;25.468;2023-09-19T01:42:58;11.50;;;6.85;;
37067;SDS011;22982;42.848;25.468;2023-09-19T01:53:51;9.20;;;5.63;;
37067;SDS011;22982;42.848;25.468;2023-09-19T01:59:01;9.95;;;6.00;;
37067;SDS011;22982;42.848;25.468;2023-09-19T02:04:11;8.27;;;6.10;;
37067;SDS011;22982;42.848;25.468;2023-09-19T02:09:14;12.60;;;6.10;;
37067;SDS011;22982;42.848;25.468;2023-09-19T02:14:19;11.07;;;6.85;;
37067;SDS011;22982;42.848;25.468;2023-09-19T02:19:22;11.02;;;6.25;;
37067;SDS011;22982;42.848;25.468;2023-09-19T02:24:24;9.82;;;6.13;;
37067;SDS011;22982;42.848;25.468;2023-09-19T02:29:28;8.07;;;6.15;;
37067;SDS011;22982;42.848;25.468;2023-09-19T02:34:31;9.75;;;6.60;;
37067;SDS011;22982;42.848;25.468;2023-09-19T02:39:34;9.80;;;6.25;;
37067;SDS011;22982;42.848;25.468;2023-09-19T02:44:37;12.35;;;6.70;;
37067;SDS011;22982;42.848;25.468;2023-09-19T02:49:40;7.85;;;6.22;;
37067;SDS011;22982;42.848;25.468;2023-09-19T02:54:44;10.75;;;6.47;;
37067;SDS011;22982;42.848;25.468;2023-09-19T02:59:48;10.43;;;6.25;;
37067;SDS011;22982;42.848;25.468;2023-09-19T03:04:50;12.25;;;6.40;;
37067;SDS011;22982;42.848;25.468;2023-09-19T03:09:54;12.32;;;6.95;;
37067;SDS011;22982;42.848;25.468;2023-09-19T03:14:57;7.50;;;5.85;;
37067;SDS011;22982;42.848;25.468;2023-09-19T03:19:59;6.95;;;5.80;;
37067;SDS011;22982;42.848;25.468;2023-09-19T03:25:03;27.80;;;10.25;;
37067;SDS011;22982;42.848;25.468;2023-09-19T03:30:12;8.40;;;6.03;;
37067;SDS011;22982;42.848;25.468;2023-09-19T03:35:17;7.80;;;6.20;;
37067;SDS011;22982;42.848;25.468;2023-09-19T03:40:21;9.15;;;7.20;;
37067;SDS011;22982;42.848;25.468;2023-09-19T03:45:24;10.80;;;6.90;;
37067;SDS011;22982;42.848;25.468;2023-09-19T03:50:27;7.68;;;6.35;;
37067;SDS011;22982;42.848;25.468;2023-09-19T03:55:30;9.05;;;5.40;;
37067;SDS011;22982;42.848;25.468;2023-09-19T04:00:32;10.07;;;6.97;;
37067;SDS011;22982;42.848;25.468;2023-09-19T04:05:40;10.70;;;6.50;;
37067;SDS011;22982;42.848;25.468;2023-09-19T04:10:43;13.68;;;6.43;;
37067;SDS011;22982;42.848;25.468;2023-09-19T04:15:47;11.48;;;6.53;;
37067;SDS011;22982;42.848;25.468;2023-09-19T04:20:50;8.02;;;5.85;;
37067;SDS011;22982;42.848;25.468;2023-09-19T04:25:53;16.73;;;6.63;;
37067;SDS011;22982;42.848;25.468;2023-09-19T04:30:56;10.82;;;5.57;;
37067;SDS011;22982;42.848;25.468;2023-09-19T04:35:59;8.02;;;6.43;;
37067;SDS011;22982;42.848;25.468;2023-09-19T04:41:22;12.65;;;7.22;;
37067;SDS011;22982;42.848;25.468;2023-09-19T04:46:25;9.07;;;5.97;;
37067;SDS011;22982;42.848;25.468;2023-09-19T04:51:28;12.18;;;6.68;;
37067;SDS011;22982;42.848;25.468;2023-09-19T04:56:35;13.25;;;7.00;;
37067;SDS011;22982;42.848;25.468;2023-09-19T05:01:42;9.65;;;6.25;;
37067;SDS011;22982;42.848;25.468;2023-09-19T05:06:45;11.82;;;6.97;;
37067;SDS011;22982;42.848;25.468;2023-09-19T05:11:48;9.82;;;5.95;;
37067;SDS011;22982;42.848;25.468;2023-09-19T05:16:50;9.65;;;6.68;;
37067;SDS011;22982;42.848;25.468;2023-09-19T05:21:54;11.02;;;6.50;;
37067;SDS011;22982;42.848;25.468;2023-09-19T05:26:56;11.75;;;6.15;;
37067;SDS011;22982;42.848;25.468;2023-09-19T05:32:00;10.35;;;5.75;;
37067;SDS011;22982;42.848;25.468;2023-09-19T05:37:02;7.60;;;5.47;;
37067;SDS011;22982;42.848;25.468;2023-09-19T05:42:05;8.00;;;6.10;;
37067;SDS011;22982;42.848;25.468;2023-09-19T05:47:09;7.18;;;5.65;;
37067;SDS011;22982;42.848;25.468;2023-09-19T05:52:13;9.18;;;6.28;;
37067;SDS011;22982;42.848;25.468;2023-09-19T05:57:15;6.63;;;4.63;;
37067;SDS011;22982;42.848;25.468;2023-09-19T06:02:18;9.95;;;3.70;;
37067;SDS011;22982;42.848;25.468;2023-09-19T06:07:22;4.93;;;3.30;;
37067;SDS011;22982;42.848;25.468;2023-09-19T06:12:28;3.72;;;3.33;;
37067;SDS011;22982;42.848;25.468;2023-09-19T06:17:32;8.18;;;3.70;;
37067;SDS011;22982;42.848;25.468;2023-09-19T06:22:35;6.05;;;3.78;;
37067;SDS011;22982;42.848;25.468;2023-09-19T06:27:39;5.32;;;3.80;;
37067;SDS011;22982;42.848;25.468;2023-09-19T06:32:44;5.50;;;3.85;;
37067;SDS011;22982;42.848;25.468;2023-09-19T06:37:48;5.32;;;3.30;;
37067;SDS011;22982;42.848;25.468;2023-09-19T06:42:51;8.07;;;3.47;;
37067;SDS011;22982;42.848;25.468;2023-09-19T06:47:56;4.43;;;3.60;;
37067;SDS011;22982;42.848;25.468;2023-09-19T06:53:00;4.18;;;3.47;;
37067;SDS011;22982;42.848;25.468;2023-09-19T06:58:04;6.97;;;3.25;;
37067;SDS011;22982;42.848;25.468;2023-09-19T07:03:08;7.28;;;3.45;;
37067;SDS011;22982;42.848;25.468;2023-09-19T07:08:13;9.20;;;3.58;;
37067;SDS011;22982;42.848;25.468;2023-09-19T07:13:17;4.93;;;3.72;;
37067;SDS011;22982;42.848;25.468;2023-09-19T07:18:19;3.85;;;3.45;;
37067;SDS011;22982;42.848;25.468;2023-09-19T07:23:23;3.65;;;3.30;;
37067;SDS011;22982;42.848;25.468;2023-09-19T07:28:25;4.57;;;3.47;;
37067;SDS011;22982;42.848;25.468;2023-09-19T07:33:28;6.15;;;3.22;;
37067;SDS011;22982;42.848;25.468;2023-09-19T07:38:31;4.28;;;3.80;;
37067;SDS011;22982;42.848;25.468;2023-09-19T07:43:37;6.20;;;3.92;;
37067;SDS011;22982;42.848;25.468;2023-09-19T07:48:44;6.40;;;3.67;;
37067;SDS011;22982;42.848;25.468;2023-09-19T07:53:51;5.13;;;3.72;;
37067;SDS011;22982;42.848;25.468;2023-09-19T07:58:54;5.93;;;3.53;;
37067;SDS011;22982;42.848;25.468;2023-09-19T08:03:59;4.15;;;3.70;;
37067;SDS011;22982;42.848;25.468;2023-09-19T08:09:02;3.97;;;3.30;;
37067;SDS011;22982;42.848;25.468;2023-09-19T08:14:09;5.25;;;3.47;;
37067;SDS011;22982;42.848;25.468;2023-09-19T08:19:16;5.60;;;3.60;;
37067;SDS011;22982;42.848;25.468;2023-09-19T08:24:18;3.83;;;3.47;;
37067;SDS011;22982;42.848;25.468;2023-09-19T08:29:23;6.18;;;4.53;;
37067;SDS011;22982;42.848;25.468;2023-09-19T08:34:29;5.65;;;3.60;;
37067;SDS011;22982;42.848;25.468;2023-09-19T08:39:36;4.65;;;3.33;;
37067;SDS011;22982;42.848;25.468;2023-09-19T08:44:39;4.90;;;3.38;;
37067;SDS011;22982;42.848;25.468;2023-09-19T08:55:01;3.80;;;3.50;;
37067;SDS011;22982;42.848;25.468;2023-09-19T09:00:08;6.50;;;4.00;;
37067;SDS011;22982;42.848;25.468;2023-09-19T09:05:14;3.97;;;3.58;;
37067;SDS011;22982;42.848;25.468;2023-09-19T09:10:25;4.80;;;3.58;;
37067;SDS011;22982;42.848;25.468;2023-09-19T09:15:28;4.53;;;2.78;;
37067;SDS011;22982;42.848;25.468;2023-09-19T09:20:34;4.15;;;3.67;;
37067;SDS011;22982;42.848;25.468;2023-09-19T09:25:53;4.28;;;3.85;;
37067;SDS011;22982;42.848;25.468;2023-09-19T09:30:58;4.20;;;3.50;;
37067;SDS011;22982;42.848;25.468;2023-09-19T09:36:02;5.05;;;3.45;;
37067;SDS011;22982;42.848;25.468;2023-09-19T09:41:06;3.50;;;3.10;;
37067;SDS011;22982;42.848;25.468;2023-09-19T09:46:16;8.98;;;4.18;;
37067;SDS011;22982;42.848;25.468;2023-09-19T09:51:29;5.80;;;3.97;;
37067;SDS011;22982;42.848;25.468;2023-09-19T09:56:32;4.35;;;3.50;;
37067;SDS011;22982;42.848;25.468;2023-09-19T10:01:47;4.22;;;3.58;;
37067;SDS011;22982;42.848;25.468;2023-09-19T10:06:55;4.90;;;3.67;;
37067;SDS011;22982;42.848;25.468;2023-09-19T10:12:08;5.88;;;3.50;;
37067;SDS011;22982;42.848;25.468;2023-09-19T10:17:14;4.75;;;3.55;;
37067;SDS011;22982;42.848;25.468;2023-09-19T10:22:22;5.13;;;3.08;;
37067;SDS011;22982;42.848;25.468;2023-09-19T10:27:26;6.03;;;3.53;;
37067;SDS011;22982;42.848;25.468;2023-09-19T10:32:32;5.93;;;3.90;;
37067;SDS011;22982;42.848;25.468;2023-09-19T10:37:35;4.53;;;3.22;;
37067;SDS011;22982;42.848;25.468;2023-09-19T10:42:39;4.43;;;3.35;;
37067;SDS011;22982;42.848;25.468;2023-09-19T10:47:44;4.53;;;3.72;;
37067;SDS011;22982;42.848;25.468;2023-09-19T10:52:47;7.55;;;3.75;;
37067;SDS011;22982;42.848;25.468;2023-09-19T10:58:00;4.38;;;3.97;;
37067;SDS011;22982;42.848;25.468;2023-09-19T11:08:14;5.70;;;3.22;;
37067;SDS011;22982;42.848;25.468;2023-09-19T11:13:24;7.03;;;3.90;;
37067;SDS011;22982;42.848;25.468;2023-09-19T11:23:51;5.70;;;4.75;;
37067;SDS011;22982;42.848;25.468;2023-09-19T11:29:27;4.25;;;3.60;;
37067;SDS011;22982;42.848;25.468;2023-09-19T11:39:39;3.63;;;3.33;;
37067;SDS011;22982;42.848;25.468;2023-09-19T11:44:43;4.57;;;3.55;;
37067;SDS011;22982;42.848;25.468;2023-09-19T11:49:46;4.03;;;3.30;;
37067;SDS011;22982;42.848;25.468;2023-09-19T11:54:55;3.30;;;3.00;;
37067;SDS011;22982;42.848;25.468;2023-09-19T11:59:59;5.15;;;3.33;;
37067;SDS011;22982;42.848;25.468;2023-09-19T12:05:12;3.45;;;3.00;;
37067;SDS011;22982;42.848;25.468;2023-09-19T12:10:17;4.55;;;3.00;;
37067;SDS011;22982;42.848;25.468;2023-09-19T12:15:23;4.95;;;2.85;;
37067;SDS011;22982;42.848;25.468;2023-09-19T12:20:43;5.03;;;3.30;;
37067;SDS011;22982;42.848;25.468;2023-09-19T12:25:51;3.97;;;3.20;;
37067;SDS011;22982;42.848;25.468;2023-09-19T12:31:06;4.43;;;3.00;;
37067;SDS011;22982;42.848;25.468;2023-09-19T12:36:22;5.22;;;3.70;;
37067;SDS011;22982;42.848;25.468;2023-09-19T12:41:37;4.10;;;3.08;;
37067;SDS011;22982;42.848;25.468;2023-09-19T12:46:40;4.43;;;3.70;;
37067;SDS011;22982;42.848;25.468;2023-09-19T12:51:47;5.07;;;3.70;;
37067;SDS011;22982;42.848;25.468;2023-09-19T18:20:59;10.40;;;5.55;;
37067;SDS011;22982;42.848;25.468;2023-09-19T18:26:03;9.02;;;5.30;;
37067;SDS011;22982;42.848;25.468;2023-09-19T18:31:07;15.27;;;5.65;;
37067;SDS011;22982;42.848;25.468;2023-09-19T18:36:10;10.43;;;5.63;;
37067;SDS011;22982;42.848;25.468;2023-09-19T18:41:13;5.93;;;5.28;;
37067;SDS011;22982;42.848;25.468;2023-09-19T18:46:16;10.77;;;5.75;;
37067;SDS011;22982;42.848;25.468;2023-09-19T18:51:20;9.70;;;5.95;;
37067;SDS011;22982;42.848;25.468;2023-09-19T18:56:23;15.90;;;6.38;;
37067;SDS011;22982;42.848;25.468;2023-09-19T19:01:26;6.60;;;5.57;;
37067;SDS011;22982;42.848;25.468;2023-09-19T19:06:29;11.23;;;6.47;;
37067;SDS011;22982;42.848;25.468;2023-09-19T19:11:32;8.90;;;5.75;;
37067;SDS011;22982;42.848;25.468;2023-09-19T19:16:36;7.68;;;5.32;;
37067;SDS011;22982;42.848;25.468;2023-09-19T19:21:39;9.60;;;5.28;;
37067;SDS011;22982;42.848;25.468;2023-09-19T19:26:41;6.78;;;5.63;;
37067;SDS011;22982;42.848;25.468;2023-09-19T19:31:47;9.10;;;6.13;;
37067;SDS011;22982;42.848;25.468;2023-09-19T19:36:51;9.60;;;5.85;;
37067;SDS011;22982;42.848;25.468;2023-09-19T19:41:53;7.88;;;5.30;;
37067;SDS011;22982;42.848;25.468;2023-09-19T19:46:56;6.53;;;5.28;;
37067;SDS011;22982;42.848;25.468;2023-09-19T19:51:58;13.13;;;7.03;;
37067;SDS011;22982;42.848;25.468;2023-09-19T19:57:01;12.23;;;6.57;;
37067;SDS011;22982;42.848;25.468;2023-09-19T20:02:06;7.93;;;5.95;;
37067;SDS011;22982;42.848;25.468;2023-09-19T20:07:08;11.15;;;7.07;;
37067;SDS011;22982;42.848;25.468;2023-09-19T20:12:13;9.68;;;5.60;;
37067;SDS011;22982;42.848;25.468;2023-09-19T20:17:15;6.35;;;5.57;;
37067;SDS011;22982;42.848;25.468;2023-09-19T20:22:18;8.20;;;5.30;;
37067;SDS011;22982;42.848;25.468;2023-09-19T20:27:21;6.72;;;5.75;;
37067;SDS011;22982;42.848;25.468;2023-09-19T20:32:24;9.18;;;6.20;;
37067;SDS011;22982;42.848;25.468;2023-09-19T20:37:27;12.68;;;7.00;;
37067;SDS011;22982;42.848;25.468;2023-09-19T20:42:29;10.43;;;6.05;;
37067;SDS011;22982;42.848;25.468;2023-09-19T20:47:32;10.07;;;6.63;;
37067;SDS011;22982;42.848;25.468;2023-09-19T20:52:35;9.30;;;6.07;;
37067;SDS011;22982;42.848;25.468;2023-09-19T20:57:39;8.85;;;5.75;;
37067;SDS011;22982;42.848;25.468;2023-09-19T21:02:42;9.75;;;6.30;;
37067;SDS011;22982;42.848;25.468;2023-09-19T21:07:47;8.90;;;6.10;;
37067;SDS011;22982;42.848;25.468;2023-09-19T21:12:51;10.57;;;6.22;;
37067;SDS011;22982;42.848;25.468;2023-09-19T21:17:53;9.07;;;6.38;;
37067;SDS011;22982;42.848;25.468;2023-09-19T21:22:57;9.00;;;5.97;;
37067;SDS011;22982;42.848;25.468;2023-09-19T21:27:59;12.13;;;6.85;;
37067;SDS011;22982;42.848;25.468;2023-09-19T21:33:03;8.45;;;6.43;;
37067;SDS011;22982;42.848;25.468;2023-09-19T21:38:06;10.25;;;6.18;;
37067;SDS011;22982;42.848;25.468;2023-09-19T21:43:09;10.35;;;6.32;;
37067;SDS011;22982;42.848;25.468;2023-09-19T21:48:12;13.93;;;6.43;;
37067;SDS011;22982;42.848;25.468;2023-09-19T21:53:14;7.40;;;5.88;;
37067;SDS011;22982;42.848;25.468;2023-09-19T21:58:18;9.88;;;6.20;;
37067;SDS011;22982;42.848;25.468;2023-09-19T22:03:20;8.85;;;6.43;;
37067;SDS011;22982;42.848;25.468;2023-09-19T22:08:25;7.10;;;6.40;;
37067;SDS011;22982;42.848;25.468;2023-09-19T22:13:28;8.95;;;6.00;;
37067;SDS011;22982;42.848;25.468;2023-09-19T22:18:32;7.82;;;5.82;;
37067;SDS011;22982;42.848;25.468;2023-09-19T22:23:35;11.82;;;6.60;;
37067;SDS011;22982;42.848;25.468;2023-09-19T22:28:47;10.48;;;7.55;;
37067;SDS011;22982;42.848;25.468;2023-09-19T22:33:55;8.77;;;7.47;;
37067;SDS011;22982;42.848;25.468;2023-09-19T22:38:58;7.45;;;6.05;;
37067;SDS011;22982;42.848;25.468;2023-09-19T22:44:03;10.63;;;6.30;;
37067;SDS011;22982;42.848;25.468;2023-09-19T22:49:07;10.68;;;6.40;;
37067;SDS011;22982;42.848;25.468;2023-09-19T22:54:18;10.57;;;7.68;;
37067;SDS011;22982;42.848;25.468;2023-09-19T22:59:28;11.65;;;7.53;;
37067;SDS011;22982;42.848;25.468;2023-09-19T23:04:32;12.63;;;7.22;;
37067;SDS011;22982;42.848;25.468;2023-09-19T23:09:36;9.85;;;7.30;;
37067;SDS011;22982;42.848;25.468;2023-09-19T23:14:39;8.48;;;6.90;;
37067;SDS011;22982;42.848;25.468;2023-09-19T23:19:44;10.35;;;7.25;;
37067;SDS011;22982;42.848;25.468;2023-09-19T23:24:51;11.85;;;6.93;;
37067;SDS011;22982;42.848;25.468;2023-09-19T23:30:17;12.23;;;6.90;;
37067;SDS011;22982;42.848;25.468;2023-09-19T23:35:21;10.98;;;7.15;;
37067;SDS011;22982;42.848;25.468;2023-09-19T23:40:25;13.23;;;6.93;;
37067;SDS011;22982;42.848;25.468;2023-09-19T23:45:29;9.68;;;6.65;;
37067;SDS011;22982;42.848;25.468;2023-09-19T23:50:33;14.10;;;7.65;;
